createdAt,value
2019-06-08T00:02:02.533Z,15.07
2019-06-08T00:04:29.587Z,15.04
2019-06-08T00:06:56.699Z,15.00
2019-06-08T00:09:24.150Z,15.06
2019-06-08T00:11:51.453Z,15.02
2019-06-08T00:14:19.207Z,14.89
2019-06-08T00:16:46.276Z,14.73
2019-06-08T00:19:13.806Z,14.65
2019-06-08T00:21:41.216Z,14.51
2019-06-08T00:24:09.518Z,14.45
2019-06-08T00:26:36.718Z,14.42
2019-06-08T00:29:03.941Z,14.34
2019-06-08T00:31:31.103Z,14.18
2019-06-08T00:33:58.470Z,13.96
2019-06-08T00:36:25.894Z,13.93
2019-06-08T00:38:52.937Z,13.89
2019-06-08T00:41:20.705Z,13.85
2019-06-08T00:43:49.374Z,13.90
2019-06-08T00:46:17.227Z,13.91
2019-06-08T00:48:44.382Z,13.92
2019-06-08T00:51:11.489Z,13.98
2019-06-08T00:53:38.522Z,14.20
2019-06-08T00:56:06.679Z,14.42
2019-06-08T00:58:33.733Z,14.49
2019-06-08T01:01:00.774Z,14.54
2019-06-08T01:03:27.818Z,14.67
2019-06-08T01:05:57.004Z,14.69
2019-06-08T01:08:27.378Z,14.72
2019-06-08T01:10:54.614Z,14.85
2019-06-08T01:13:24.843Z,14.89
2019-06-08T01:15:52.132Z,14.75
2019-06-08T01:18:21.144Z,14.64
2019-06-08T01:20:48.217Z,14.69
2019-06-08T01:23:16.338Z,14.67
2019-06-08T01:25:43.372Z,14.60
2019-06-08T01:28:10.480Z,14.58
2019-06-08T01:30:37.737Z,14.60
2019-06-08T01:33:04.770Z,14.72
2019-06-08T01:35:31.868Z,14.60
2019-06-08T01:37:58.915Z,14.62
2019-06-08T01:40:27.359Z,14.70
2019-06-08T01:42:56.463Z,14.83
2019-06-08T01:45:30.139Z,14.86
2019-06-08T01:48:15.980Z,14.92
2019-06-08T01:50:32.851Z,14.98
2019-06-08T01:53:01.321Z,15.09
2019-06-08T01:55:31.022Z,15.19
2019-06-08T01:57:58.795Z,15.13
2019-06-08T02:00:32.510Z,15.30
2019-06-08T02:02:57.142Z,15.32
2019-06-08T02:05:26.097Z,15.35
2019-06-08T02:07:53.221Z,15.28
2019-06-08T02:10:22.146Z,15.22
2019-06-08T02:12:49.253Z,15.22
2019-06-08T02:15:16.915Z,15.22
2019-06-08T02:17:45.070Z,15.20
2019-06-08T02:20:14.337Z,15.24
2019-06-08T02:22:41.361Z,15.34
2019-06-08T02:25:09.713Z,15.53
2019-06-08T02:27:40.971Z,15.49
2019-06-08T02:30:15.086Z,15.59
2019-06-08T02:32:43.165Z,15.59
2019-06-08T02:35:20.765Z,15.59
2019-06-08T02:37:49.140Z,15.47
2019-06-08T02:40:16.528Z,15.44
2019-06-08T02:42:43.738Z,15.32
2019-06-08T02:45:13.928Z,15.19
2019-06-08T02:47:41.298Z,15.23
2019-06-08T02:50:09.389Z,15.17
2019-06-08T02:52:38.285Z,15.13
2019-06-08T02:55:08.510Z,15.01
2019-06-08T02:57:39.843Z,14.92
2019-06-08T03:00:09.569Z,14.83
2019-06-08T03:02:40.462Z,14.83
2019-06-08T03:05:10.892Z,14.70
2019-06-08T03:07:41.356Z,14.61
2019-06-08T03:10:08.969Z,14.54
2019-06-08T03:12:39.764Z,14.44
2019-06-08T03:15:08.471Z,14.40
2019-06-08T03:17:35.685Z,14.37
2019-06-08T03:20:04.859Z,14.38
2019-06-08T03:22:34.029Z,14.36
2019-06-08T03:25:01.218Z,14.36
2019-06-08T03:27:28.470Z,14.41
2019-06-08T03:29:55.949Z,14.37
2019-06-08T03:32:22.982Z,14.35
2019-06-08T03:34:55.710Z,14.39
2019-06-08T03:37:19.158Z,14.40
2019-06-08T03:39:46.235Z,14.40
2019-06-08T03:42:13.620Z,14.43
2019-06-08T03:44:42.787Z,14.45
2019-06-08T03:47:09.811Z,14.54
2019-06-08T03:49:48.813Z,14.61
2019-06-08T03:52:06.071Z,14.59
2019-06-08T03:54:33.669Z,14.51
2019-06-08T03:57:01.918Z,14.44
2019-06-08T03:59:28.965Z,14.42
2019-06-08T04:01:56.056Z,14.47
2019-06-08T04:04:23.092Z,14.60
2019-06-08T04:06:50.222Z,14.75
2019-06-08T04:09:17.223Z,14.79
2019-06-08T04:11:46.768Z,14.80
2019-06-08T04:14:14.199Z,14.61
2019-06-08T04:16:42.835Z,14.46
2019-06-08T04:19:10.184Z,14.31
2019-06-08T04:21:37.928Z,14.24
2019-06-08T04:24:05.094Z,14.35
2019-06-08T04:26:33.312Z,14.42
2019-06-08T04:29:02.205Z,14.40
2019-06-08T04:31:29.277Z,14.40
2019-06-08T04:33:56.282Z,14.54
2019-06-08T04:36:23.388Z,14.60
2019-06-08T04:38:50.458Z,14.62
2019-06-08T04:41:17.863Z,14.66
2019-06-08T04:43:47.006Z,14.40
2019-06-08T04:46:13.933Z,14.19
2019-06-08T04:48:42.829Z,14.17
2019-06-08T04:51:10.124Z,14.08
2019-06-08T04:53:38.637Z,14.08
2019-06-08T04:56:05.678Z,14.45
2019-06-08T04:58:32.761Z,14.76
2019-06-08T05:00:59.811Z,15.68
2019-06-08T05:03:27.255Z,16.15
2019-06-08T05:05:54.354Z,16.44
2019-06-08T05:08:21.383Z,16.33
2019-06-08T05:10:49.636Z,16.38
2019-06-08T05:13:17.132Z,16.31
2019-06-08T05:15:45.453Z,16.13
2019-06-08T05:18:13.706Z,15.71
2019-06-08T05:20:43.091Z,15.66
2019-06-08T05:23:09.843Z,15.61
2019-06-08T05:25:36.910Z,15.30
2019-06-08T05:28:03.988Z,15.53
2019-06-08T05:30:31.039Z,15.79
2019-06-08T05:32:59.310Z,16.05
2019-06-08T05:35:27.729Z,16.00
2019-06-08T05:37:54.820Z,15.99
2019-06-08T05:40:21.846Z,15.72
2019-06-08T05:42:49.973Z,16.14
2019-06-08T05:45:17.416Z,17.03
2019-06-08T05:47:45.714Z,17.84
2019-06-08T05:50:14.451Z,18.36
2019-06-08T05:52:41.904Z,18.86
2019-06-08T05:55:09.576Z,19.08
2019-06-08T05:57:36.681Z,19.92
2019-06-08T06:00:09.110Z,19.98
2019-06-08T06:02:34.111Z,20.05
2019-06-08T06:05:01.180Z,20.48
2019-06-08T06:07:28.195Z,20.24
2019-06-08T06:09:57.494Z,19.48
2019-06-08T06:12:24.635Z,18.91
2019-06-08T06:14:51.681Z,19.44
2019-06-08T06:17:18.905Z,18.88
2019-06-08T06:19:47.223Z,18.32
2019-06-08T06:22:15.490Z,18.19
2019-06-08T06:24:43.710Z,17.96
2019-06-08T06:27:12.261Z,18.00
2019-06-08T06:29:39.289Z,17.84
2019-06-08T06:32:11.141Z,17.68
2019-06-08T06:34:39.781Z,17.74
2019-06-08T06:37:08.422Z,17.53
2019-06-08T06:39:35.486Z,17.60
2019-06-08T06:42:04.674Z,17.46
2019-06-08T06:44:34.464Z,17.71
2019-06-08T06:47:06.564Z,17.78
2019-06-08T06:49:33.684Z,18.02
2019-06-08T06:52:00.866Z,18.10
2019-06-08T06:54:28.926Z,18.16
2019-06-08T06:56:55.979Z,17.65
2019-06-08T06:59:23.086Z,17.56
2019-06-08T07:01:57.632Z,17.48
2019-06-08T07:04:31.275Z,18.00
2019-06-08T07:06:59.634Z,18.45
2019-06-08T07:09:26.687Z,19.22
2019-06-08T07:11:56.670Z,19.59
2019-06-08T07:14:24.445Z,20.06
2019-06-08T07:17:06.089Z,20.17
2019-06-08T07:19:36.019Z,20.42
2019-06-08T07:22:04.838Z,20.04
2019-06-08T07:24:31.908Z,20.20
2019-06-08T07:26:58.978Z,20.09
2019-06-08T07:29:26.851Z,20.54
2019-06-08T07:31:55.496Z,21.03
2019-06-08T07:34:22.546Z,20.99
2019-06-08T07:36:49.743Z,21.54
2019-06-08T07:39:16.943Z,19.74
2019-06-08T07:41:51.792Z,19.88
2019-06-08T07:44:19.878Z,19.78
2019-06-08T07:46:47.095Z,18.89
2019-06-08T07:49:18.187Z,18.22
2019-06-08T07:52:02.473Z,18.07
2019-06-08T07:54:22.314Z,17.92
2019-06-08T07:56:54.949Z,19.00
2019-06-08T07:59:22.080Z,20.48
2019-06-08T08:01:49.856Z,21.64
2019-06-08T08:04:17.159Z,22.18
2019-06-08T08:06:46.384Z,24.02
2019-06-08T08:09:13.431Z,23.99
2019-06-08T08:11:40.505Z,22.86
2019-06-08T08:14:07.572Z,21.52
2019-06-08T08:16:34.728Z,20.87
2019-06-08T08:19:01.881Z,20.38
2019-06-08T08:24:24.524Z,19.59
2019-06-08T08:26:54.432Z,19.24
2019-06-08T08:29:28.197Z,19.08
2019-06-08T08:32:00.138Z,19.47
2019-06-08T08:34:33.429Z,20.24
2019-06-08T08:37:06.388Z,19.95
2019-06-08T08:39:38.329Z,19.77
2019-06-08T08:42:08.539Z,19.55
2019-06-08T08:44:37.963Z,19.35
2019-06-08T08:47:08.039Z,19.42
2019-06-08T08:49:44.157Z,19.91
2019-06-08T08:52:12.297Z,19.75
2019-06-08T08:54:42.802Z,20.21
2019-06-08T08:57:12.960Z,20.73
2019-06-08T08:59:40.128Z,21.29
2019-06-08T09:02:11.547Z,20.97
2019-06-08T09:04:40.856Z,20.56
2019-06-08T09:07:10.647Z,21.39
2019-06-08T09:09:39.194Z,22.12
2019-06-08T09:12:08.255Z,22.73
2019-06-08T09:14:38.754Z,23.93
2019-06-08T09:17:09.013Z,23.08
2019-06-08T09:19:39.276Z,22.32
2019-06-08T09:22:09.422Z,23.19
2019-06-08T09:24:38.804Z,23.67
2019-06-08T09:27:08.021Z,22.83
2019-06-08T09:29:35.561Z,22.33
2019-06-08T09:32:03.629Z,22.01
2019-06-08T09:34:32.294Z,21.16
2019-06-08T09:37:02.502Z,21.69
2019-06-08T09:39:29.589Z,22.14
2019-06-08T09:42:00.410Z,22.43
2019-06-08T09:44:27.931Z,21.56
2019-06-08T09:46:58.740Z,21.77
2019-06-08T09:49:28.336Z,21.98
2019-06-08T09:51:58.737Z,23.44
2019-06-08T09:54:24.445Z,23.14
2019-06-08T09:56:51.534Z,23.18
2019-06-08T09:59:19.178Z,23.54
2019-06-08T10:01:46.417Z,24.20
2019-06-08T10:04:15.994Z,24.02
2019-06-08T10:06:43.062Z,24.78
2019-06-08T10:09:10.608Z,23.94
2019-06-08T10:11:42.163Z,24.02
2019-06-08T10:14:15.062Z,24.09
2019-06-08T10:16:42.665Z,25.28
2019-06-08T10:19:11.501Z,25.96
2019-06-08T10:21:42.843Z,23.90
2019-06-08T10:24:30.508Z,24.67
2019-06-08T10:27:11.062Z,25.47
2019-06-08T10:29:35.302Z,24.87
2019-06-08T10:32:03.841Z,24.59
2019-06-08T10:34:31.340Z,24.95
2019-06-08T10:37:03.346Z,24.62
2019-06-08T10:39:30.807Z,24.55
2019-06-08T10:42:01.483Z,25.50
2019-06-08T10:44:32.351Z,26.52
2019-06-08T10:47:03.257Z,26.64
2019-06-08T10:49:29.728Z,26.53
2019-06-08T10:52:02.161Z,24.24
2019-06-08T10:54:29.446Z,23.92
2019-06-08T10:56:59.670Z,22.93
2019-06-08T10:59:25.508Z,21.69
2019-06-08T11:01:52.553Z,21.31
2019-06-08T11:04:19.592Z,21.44
2019-06-08T11:06:48.118Z,22.23
2019-06-08T11:09:16.358Z,23.04
2019-06-08T11:11:44.136Z,23.36
2019-06-08T11:14:13.212Z,24.08
2019-06-08T11:16:40.183Z,22.02
2019-06-08T11:19:13.014Z,23.98
2019-06-08T11:21:38.587Z,24.84
2019-06-08T11:24:19.444Z,27.03
2019-06-08T11:26:35.043Z,25.27
2019-06-08T11:29:02.951Z,26.41
2019-06-08T11:31:32.227Z,29.07
2019-06-08T11:34:08.992Z,29.05
2019-06-08T11:36:52.419Z,28.23
2019-06-08T11:39:23.387Z,30.01
2019-06-08T11:42:09.838Z,30.86
2019-06-08T11:44:38.937Z,27.16
2019-06-08T11:47:13.264Z,29.41
2019-06-08T11:49:45.090Z,25.91
2019-06-08T11:52:15.434Z,24.61
2019-06-08T11:54:43.315Z,22.80
2019-06-08T11:57:18.245Z,21.57
2019-06-08T11:59:48.535Z,23.20
2019-06-08T12:02:18.464Z,25.54
2019-06-08T12:04:58.251Z,23.39
2019-06-08T12:07:32.160Z,21.72
2019-06-08T12:10:09.060Z,22.09
2019-06-08T12:12:41.208Z,23.03
2019-06-08T12:15:11.594Z,22.63
2019-06-08T12:20:37.972Z,25.24
2019-06-08T12:23:07.937Z,23.60
2019-06-08T12:25:37.780Z,23.72
2019-06-08T12:28:04.761Z,25.24
2019-06-08T12:30:31.832Z,28.20
2019-06-08T12:33:00.995Z,30.00
2019-06-08T12:35:28.831Z,30.48
2019-06-08T12:37:58.094Z,31.09
2019-06-08T12:40:25.199Z,31.72
2019-06-08T12:42:59.468Z,27.37
2019-06-08T12:45:27.593Z,26.45
2019-06-08T12:47:55.084Z,26.18
2019-06-08T12:50:22.196Z,30.07
2019-06-08T12:52:49.466Z,28.74
2019-06-08T12:55:24.739Z,27.80
2019-06-08T12:57:53.784Z,24.97
2019-06-08T13:00:21.516Z,25.18
2019-06-08T13:02:51.314Z,27.47
2019-06-08T13:05:23.076Z,29.26
2019-06-08T13:07:58.953Z,30.70
2019-06-08T13:10:27.763Z,28.59
2019-06-08T13:13:02.934Z,32.27
2019-06-08T13:15:32.670Z,34.95
2019-06-08T13:18:15.191Z,36.40
2019-06-08T13:20:43.448Z,34.76
2019-06-08T13:23:11.552Z,37.12
2019-06-08T13:25:43.526Z,30.26
2019-06-08T13:28:10.907Z,27.19
2019-06-08T13:30:38.968Z,27.49
2019-06-08T13:33:08.081Z,29.59
2019-06-08T13:35:35.208Z,28.97
2019-06-08T13:38:03.199Z,30.60
2019-06-08T13:40:30.252Z,28.92
2019-06-08T13:42:58.236Z,26.47
2019-06-08T13:45:27.827Z,29.41
2019-06-08T13:47:54.776Z,28.65
2019-06-08T13:50:23.849Z,27.53
2019-06-08T13:52:51.190Z,26.82
2019-06-08T13:55:48.014Z,28.70
2019-06-08T13:58:05.532Z,30.21
2019-06-08T14:00:34.840Z,28.24
2019-06-08T14:03:03.068Z,27.53
2019-06-08T14:05:30.942Z,28.25
2019-06-08T14:08:10.980Z,30.40
2019-06-08T14:11:08.313Z,27.24
2019-06-08T14:13:48.472Z,25.93
2019-06-08T14:16:20.261Z,25.46
2019-06-08T14:18:48.615Z,25.49
2019-06-08T14:21:21.442Z,28.09
2019-06-08T14:23:45.011Z,28.76
2019-06-08T14:26:12.108Z,30.76
2019-06-08T14:28:39.230Z,32.07
2019-06-08T14:31:08.329Z,35.31
2019-06-08T14:33:37.999Z,33.19
2019-06-08T14:36:07.779Z,32.68
2019-06-08T14:38:41.637Z,29.80
2019-06-08T14:41:07.630Z,29.87
2019-06-08T14:43:44.059Z,30.62
2019-06-08T14:46:18.479Z,30.51
2019-06-08T14:48:55.325Z,29.68
2019-06-08T14:51:47.808Z,26.57
2019-06-08T14:54:18.527Z,27.13
2019-06-08T14:56:44.485Z,30.66
2019-06-08T14:59:11.583Z,32.84
2019-06-08T15:01:38.892Z,30.61
2019-06-08T15:04:08.825Z,28.34
2019-06-08T15:06:35.308Z,32.84
2019-06-08T15:09:04.337Z,30.27
2019-06-08T15:11:34.876Z,31.24
2019-06-08T15:14:02.004Z,33.85
2019-06-08T15:16:32.496Z,35.75
2019-06-08T15:19:00.330Z,35.23
2019-06-08T15:21:32.620Z,33.75
2019-06-08T15:23:57.888Z,30.81
2019-06-08T15:26:33.629Z,28.90
2019-06-08T15:28:54.989Z,29.22
2019-06-08T15:31:25.136Z,28.03
2019-06-08T15:33:53.616Z,29.26
2019-06-08T15:36:22.078Z,30.08
2019-06-08T15:38:49.575Z,30.83
2019-06-08T15:41:18.128Z,31.42
2019-06-08T15:43:47.965Z,33.72
2019-06-08T15:46:18.490Z,30.43
2019-06-08T15:48:48.361Z,32.69
2019-06-08T15:51:14.961Z,32.35
2019-06-08T15:53:42.113Z,29.12
2019-06-08T15:56:09.347Z,31.21
2019-06-08T15:58:40.518Z,33.08
2019-06-08T16:01:07.316Z,33.99
2019-06-08T16:03:34.429Z,30.36
2019-06-08T16:06:01.555Z,29.37
2019-06-08T16:08:30.256Z,26.90
2019-06-08T16:10:59.535Z,27.92
2019-06-08T16:13:26.803Z,32.13
2019-06-08T16:15:53.843Z,31.85
2019-06-08T16:18:22.976Z,31.74
2019-06-08T16:20:50.042Z,30.80
2019-06-08T16:23:17.118Z,31.39
2019-06-08T16:25:44.271Z,32.53
2019-06-08T16:28:11.465Z,33.75
2019-06-08T16:30:39.635Z,33.70
2019-06-08T16:33:06.715Z,32.09
2019-06-08T16:35:33.805Z,32.80
2019-06-08T16:38:01.028Z,33.01
2019-06-08T16:40:29.846Z,32.19
2019-06-08T16:42:57.397Z,30.60
2019-06-08T16:45:24.518Z,31.05
2019-06-08T16:47:51.695Z,29.72
2019-06-08T16:50:25.099Z,27.80
2019-06-08T16:52:52.677Z,26.40
2019-06-08T16:55:19.712Z,27.27
2019-06-08T16:57:47.095Z,26.92
2019-06-08T17:00:33.247Z,28.61
2019-06-08T17:02:46.690Z,29.63
2019-06-08T17:05:14.189Z,29.13
2019-06-08T17:07:41.291Z,26.91
2019-06-08T17:10:08.702Z,28.02
2019-06-08T17:12:36.855Z,26.44
2019-06-08T17:15:04.702Z,26.55
2019-06-08T17:17:43.028Z,26.89
2019-06-08T17:20:14.942Z,27.09
2019-06-08T17:22:44.045Z,25.85
2019-06-08T17:25:11.517Z,27.76
2019-06-08T17:27:38.948Z,27.77
2019-06-08T17:30:10.330Z,28.17
2019-06-08T17:32:38.444Z,24.61
2019-06-08T17:35:06.818Z,22.97
2019-06-08T17:37:36.005Z,23.02
2019-06-08T17:40:03.827Z,24.81
2019-06-08T17:42:32.037Z,25.92
2019-06-08T17:45:02.555Z,26.59
2019-06-08T17:47:30.067Z,26.29
2019-06-08T17:49:58.283Z,26.59
2019-06-08T17:52:27.880Z,26.07
2019-06-08T17:54:58.338Z,26.22
2019-06-08T17:57:42.442Z,26.21
2019-06-08T18:00:09.107Z,25.78
2019-06-08T18:02:39.883Z,25.41
2019-06-08T18:05:17.921Z,25.49
2019-06-08T18:08:00.028Z,25.72
2019-06-08T18:10:36.519Z,24.58
2019-06-08T18:13:12.965Z,24.75
2019-06-08T18:15:41.765Z,25.04
2019-06-08T18:18:09.530Z,24.37
2019-06-08T18:20:39.477Z,24.43
2019-06-08T18:23:07.747Z,24.14
2019-06-08T18:25:37.530Z,23.65
2019-06-08T18:28:10.220Z,22.69
2019-06-08T18:30:32.684Z,22.80
2019-06-08T18:32:59.835Z,22.83
2019-06-08T18:35:27.769Z,21.97
2019-06-08T18:37:59.770Z,22.78
2019-06-08T18:40:29.843Z,22.37
2019-06-08T18:42:57.684Z,22.66
2019-06-08T18:45:27.455Z,22.54
2019-06-08T18:48:01.302Z,22.12
2019-06-08T18:50:39.135Z,21.28
2019-06-08T18:53:07.231Z,20.57
2019-06-08T18:55:36.294Z,20.03
2019-06-08T18:58:16.406Z,19.98
2019-06-08T19:00:43.006Z,20.08
2019-06-08T19:03:09.380Z,20.29
2019-06-08T19:05:40.309Z,20.56
2019-06-08T19:08:08.888Z,20.41
2019-06-08T19:10:37.853Z,20.01
2019-06-08T19:13:05.611Z,19.34
2019-06-08T19:15:39.884Z,18.92
2019-06-08T19:18:08.285Z,18.69
2019-06-08T19:20:43.167Z,18.51
2019-06-08T19:23:09.539Z,18.47
2019-06-08T19:25:42.206Z,18.32
2019-06-08T19:28:10.710Z,18.21
2019-06-08T19:30:43.554Z,18.01
2019-06-08T19:33:09.915Z,17.83
2019-06-08T19:35:37.652Z,17.69
2019-06-08T19:38:07.417Z,17.51
2019-06-08T19:40:38.818Z,17.46
2019-06-08T19:43:07.519Z,17.41
2019-06-08T19:45:39.101Z,17.38
2019-06-08T19:48:12.184Z,17.36
2019-06-08T19:50:53.798Z,17.29
2019-06-08T19:53:28.701Z,17.22
2019-06-08T19:56:04.691Z,17.15
2019-06-08T19:58:54.918Z,17.23
2019-06-08T20:01:18.336Z,17.15
2019-06-08T20:03:46.969Z,16.95
2019-06-08T20:06:14.548Z,16.87
2019-06-08T20:08:41.555Z,16.78
2019-06-08T20:11:09.045Z,16.76
2019-06-08T20:13:37.537Z,16.71
2019-06-08T20:16:05.170Z,16.65
2019-06-08T20:18:32.466Z,16.65
2019-06-08T20:20:59.709Z,16.74
2019-06-08T20:23:27.606Z,16.72
2019-06-08T20:25:57.455Z,16.77
2019-06-08T20:28:24.403Z,16.65
2019-06-08T20:30:52.715Z,16.61
2019-06-08T20:33:20.488Z,16.65
2019-06-08T20:35:48.536Z,16.57
2019-06-08T20:38:17.740Z,16.56
2019-06-08T20:40:46.274Z,16.32
2019-06-08T20:43:14.464Z,16.12
2019-06-08T20:45:42.052Z,15.98
2019-06-08T20:48:10.365Z,15.92
2019-06-08T20:50:49.682Z,15.98
2019-06-08T20:53:17.775Z,15.92
2019-06-08T20:55:48.221Z,15.81
2019-06-08T20:58:17.695Z,15.87
2019-06-08T21:00:46.116Z,15.83
2019-06-08T21:03:14.011Z,15.79
2019-06-08T21:05:41.343Z,15.80
2019-06-08T21:08:08.577Z,15.79
2019-06-08T21:10:37.757Z,15.85
2019-06-08T21:13:07.133Z,15.74
2019-06-08T21:15:34.233Z,15.61
2019-06-08T21:18:01.351Z,15.57
2019-06-08T21:20:28.454Z,15.45
2019-06-08T21:22:59.513Z,15.38
2019-06-08T21:25:28.123Z,15.46
2019-06-08T21:27:58.382Z,15.46
2019-06-08T21:30:28.496Z,15.30
2019-06-08T21:32:59.218Z,15.21
2019-06-08T21:35:25.374Z,15.06
2019-06-08T21:37:53.576Z,15.08
2019-06-08T21:40:21.804Z,15.02
2019-06-08T21:42:52.266Z,14.89
2019-06-08T21:45:19.897Z,14.89
2019-06-08T21:47:51.297Z,14.88
2019-06-08T21:50:18.759Z,14.84
2019-06-08T21:52:48.655Z,14.77
2019-06-08T21:55:17.648Z,14.75
2019-06-08T21:57:48.271Z,14.69
2019-06-08T22:00:37.778Z,14.57
2019-06-08T22:02:51.637Z,14.45
2019-06-08T22:05:20.008Z,14.39
2019-06-08T22:07:50.470Z,14.44
2019-06-08T22:10:19.077Z,14.36
2019-06-08T22:12:48.400Z,14.36
2019-06-08T22:15:15.207Z,14.35
2019-06-08T22:17:44.287Z,14.31
2019-06-08T22:20:12.546Z,14.36
2019-06-08T22:22:39.657Z,14.12
2019-06-08T22:25:08.153Z,13.86
2019-06-08T22:27:37.955Z,13.87
2019-06-08T22:30:13.470Z,13.88
2019-06-08T22:32:34.704Z,13.90
2019-06-08T22:35:03.494Z,13.94
2019-06-08T22:37:31.152Z,13.97
2019-06-08T22:40:01.061Z,13.95
2019-06-08T22:42:29.189Z,13.94
2019-06-08T22:44:59.293Z,13.87
2019-06-08T22:47:27.641Z,14.13
2019-06-08T22:50:00.323Z,14.05
2019-06-08T22:52:27.710Z,14.02
2019-06-08T22:55:03.439Z,13.93
2019-06-08T22:57:27.814Z,13.87
2019-06-08T22:59:58.798Z,13.82
2019-06-08T23:02:27.825Z,13.84
2019-06-08T23:04:56.233Z,13.93
2019-06-08T23:07:28.636Z,13.48
2019-06-08T23:09:52.336Z,12.93
2019-06-08T23:12:20.724Z,12.58
2019-06-08T23:14:47.893Z,12.34
2019-06-08T23:17:14.979Z,12.12
2019-06-08T23:19:42.370Z,12.02
2019-06-08T23:22:09.492Z,11.93
2019-06-08T23:24:38.346Z,11.65
2019-06-08T23:27:06.703Z,11.40
2019-06-08T23:29:33.979Z,11.25
2019-06-08T23:32:03.136Z,11.18
2019-06-08T23:34:30.047Z,11.14
2019-06-08T23:37:00.917Z,11.28
2019-06-08T23:39:28.285Z,11.58
2019-06-08T23:41:55.177Z,11.83
2019-06-08T23:44:22.324Z,11.90
2019-06-08T23:46:49.437Z,12.00
2019-06-08T23:49:18.645Z,11.90
2019-06-08T23:51:47.493Z,11.85
2019-06-08T23:54:14.508Z,11.97
2019-06-08T23:56:41.681Z,12.18
2019-06-08T23:59:09.445Z,12.37
